createdAt,value
2019-02-23T00:01:11.900Z,41.90
2019-02-23T00:03:41.878Z,42.10
2019-02-23T00:06:11.556Z,42.20
2019-02-23T00:08:40.630Z,42.40
2019-02-23T00:11:09.648Z,42.40
2019-02-23T00:13:38.754Z,42.30
2019-02-23T00:16:07.801Z,42.50
2019-02-23T00:18:36.833Z,42.90
2019-02-23T00:21:06.622Z,42.20
2019-02-23T00:23:35.808Z,42.00
2019-02-23T00:26:12.009Z,42.00
2019-02-23T00:28:41.002Z,42.20
2019-02-23T00:31:10.122Z,42.60
2019-02-23T00:33:39.477Z,42.40
2019-02-23T00:36:08.577Z,42.40
2019-02-23T00:38:37.730Z,42.00
2019-02-23T00:41:06.868Z,42.10
2019-02-23T00:43:35.982Z,42.00
2019-02-23T00:46:05.021Z,42.20
2019-02-23T00:48:33.992Z,42.20
2019-02-23T00:51:03.205Z,42.10
2019-02-23T00:53:32.130Z,42.30
2019-02-23T00:56:01.328Z,42.30
2019-02-23T00:58:30.306Z,42.10
2019-02-23T01:00:59.296Z,42.20
2019-02-23T01:03:28.451Z,41.80
2019-02-23T01:05:57.448Z,41.80
2019-02-23T01:08:26.395Z,41.60
2019-02-23T01:10:58.419Z,41.70
2019-02-23T01:13:26.008Z,42.20
2019-02-23T01:15:55.097Z,41.80
2019-02-23T01:18:24.058Z,41.70
2019-02-23T01:20:53.186Z,42.40
2019-02-23T01:23:22.660Z,41.50
2019-02-23T01:25:51.652Z,41.80
2019-02-23T01:28:20.740Z,42.50
2019-02-23T01:30:49.708Z,42.20
2019-02-23T01:33:18.738Z,42.50
2019-02-23T01:35:47.566Z,41.90
2019-02-23T01:38:17.000Z,42.00
2019-02-23T01:40:46.158Z,42.40
2019-02-23T01:43:15.314Z,42.90
2019-02-23T01:45:44.477Z,43.70
2019-02-23T01:48:13.619Z,43.70
2019-02-23T01:50:42.951Z,43.60
2019-02-23T01:53:12.002Z,42.90
2019-02-23T01:55:41.096Z,42.70
2019-02-23T01:58:09.977Z,42.90
2019-02-23T02:00:40.269Z,42.90
2019-02-23T02:03:09.356Z,42.80
2019-02-23T02:05:38.485Z,42.50
2019-02-23T02:08:07.520Z,43.00
2019-02-23T02:10:36.491Z,43.00
2019-02-23T02:13:05.572Z,42.90
2019-02-23T02:15:34.693Z,44.80
2019-02-23T02:18:03.752Z,43.60
2019-02-23T02:20:32.828Z,44.10
2019-02-23T02:23:01.952Z,45.20
2019-02-23T02:25:31.052Z,45.00
2019-02-23T02:28:00.389Z,45.30
2019-02-23T02:30:29.380Z,45.40
2019-02-23T02:32:58.270Z,45.80
2019-02-23T02:35:27.343Z,43.90
2019-02-23T02:37:56.350Z,43.90
2019-02-23T02:40:25.410Z,44.10
2019-02-23T02:42:54.449Z,43.70
2019-02-23T02:45:23.725Z,43.80
2019-02-23T02:47:53.034Z,43.70
2019-02-23T02:50:24.602Z,43.90
2019-02-23T02:52:52.981Z,44.00
2019-02-23T02:55:21.859Z,44.20
2019-02-23T02:57:50.851Z,44.10
2019-02-23T03:00:19.794Z,44.10
2019-02-23T03:02:48.944Z,44.20
2019-02-23T03:05:18.015Z,44.20
2019-02-23T03:07:46.928Z,44.40
2019-02-23T03:10:15.938Z,44.30
2019-02-23T03:12:45.229Z,44.40
2019-02-23T03:15:14.296Z,44.20
2019-02-23T03:17:43.266Z,44.30
2019-02-23T03:20:12.236Z,44.40
2019-02-23T03:22:41.315Z,44.40
2019-02-23T03:25:10.368Z,44.20
2019-02-23T03:27:39.327Z,44.40
2019-02-23T03:30:09.974Z,44.40
2019-02-23T03:32:39.541Z,44.40
2019-02-23T03:35:08.743Z,44.50
2019-02-23T03:37:37.870Z,44.60
2019-02-23T03:40:08.539Z,44.60
2019-02-23T03:42:37.760Z,44.50
2019-02-23T03:45:06.819Z,44.50
2019-02-23T03:47:37.159Z,44.60
2019-02-23T03:50:06.538Z,44.60
2019-02-23T03:52:35.441Z,44.60
2019-02-23T03:55:04.954Z,44.80
2019-02-23T03:57:34.061Z,44.70
2019-02-23T04:00:03.102Z,44.90
2019-02-23T04:02:31.975Z,45.00
2019-02-23T04:05:00.969Z,45.00
2019-02-23T04:07:30.079Z,45.00
2019-02-23T04:09:59.175Z,45.00
2019-02-23T04:12:28.181Z,45.00
2019-02-23T04:14:57.110Z,46.00
2019-02-23T04:17:26.049Z,44.80
2019-02-23T04:19:54.992Z,44.80
2019-02-23T04:22:23.922Z,44.70
2019-02-23T04:24:52.886Z,44.80
2019-02-23T04:27:21.915Z,44.80
2019-02-23T04:29:50.838Z,44.70
2019-02-23T04:32:19.775Z,44.60
2019-02-23T04:34:48.783Z,45.00
2019-02-23T04:37:17.691Z,45.00
2019-02-23T04:39:46.704Z,45.00
2019-02-23T04:42:15.571Z,44.90
2019-02-23T04:44:44.503Z,45.00
2019-02-23T04:47:13.525Z,45.00
2019-02-23T04:49:42.439Z,45.60
2019-02-23T04:52:11.405Z,45.70
2019-02-23T04:54:40.405Z,45.10
2019-02-23T04:57:09.317Z,44.90
2019-02-23T04:59:38.186Z,45.00
2019-02-23T05:02:07.148Z,45.00
2019-02-23T05:04:36.108Z,45.20
2019-02-23T05:07:05.058Z,45.00
2019-02-23T05:09:34.107Z,44.70
2019-02-23T05:12:03.079Z,45.00
2019-02-23T05:14:32.547Z,44.80
2019-02-23T05:17:01.861Z,45.20
2019-02-23T05:19:30.988Z,45.20
2019-02-23T05:22:00.157Z,44.90
2019-02-23T05:24:29.192Z,45.40
2019-02-23T05:26:58.544Z,46.00
2019-02-23T05:29:27.533Z,45.00
2019-02-23T05:31:56.411Z,45.10
2019-02-23T05:34:25.292Z,45.10
2019-02-23T05:36:54.175Z,45.20
2019-02-23T05:39:23.271Z,45.10
2019-02-23T05:41:52.302Z,45.10
2019-02-23T05:44:21.256Z,44.80
2019-02-23T05:46:50.281Z,44.50
2019-02-23T05:49:19.348Z,44.50
2019-02-23T05:51:48.355Z,44.60
2019-02-23T05:54:17.341Z,44.70
2019-02-23T05:56:46.293Z,44.50
2019-02-23T05:59:15.305Z,44.30
2019-02-23T06:01:44.171Z,44.40
2019-02-23T06:04:13.300Z,44.60
2019-02-23T06:06:42.397Z,44.90
2019-02-23T06:09:11.319Z,45.00
2019-02-23T06:11:40.294Z,44.90
2019-02-23T06:14:09.335Z,45.00
2019-02-23T06:16:38.269Z,44.90
2019-02-23T06:19:07.267Z,45.00
2019-02-23T06:21:36.251Z,45.00
2019-02-23T06:24:05.332Z,45.10
2019-02-23T06:26:34.324Z,45.00
2019-02-23T06:29:03.289Z,45.10
2019-02-23T06:31:32.232Z,45.10
2019-02-23T06:34:01.471Z,45.10
2019-02-23T06:36:30.503Z,45.20
2019-02-23T06:38:59.753Z,45.20
2019-02-23T06:41:28.791Z,45.30
2019-02-23T06:43:57.849Z,45.00
2019-02-23T06:46:26.755Z,45.30
2019-02-23T06:48:55.745Z,45.40
2019-02-23T06:51:32.420Z,45.20
2019-02-23T06:54:01.367Z,45.50
2019-02-23T06:56:30.392Z,45.30
2019-02-23T06:58:59.462Z,45.20
2019-02-23T07:01:28.366Z,45.10
2019-02-23T07:03:57.604Z,45.10
2019-02-23T07:06:26.608Z,44.90
2019-02-23T07:08:55.623Z,44.90
2019-02-23T07:11:24.581Z,45.20
2019-02-23T07:13:53.498Z,45.30
2019-02-23T07:16:22.498Z,45.10
2019-02-23T07:18:53.578Z,45.70
2019-02-23T07:21:22.519Z,45.40
2019-02-23T07:23:51.563Z,45.50
2019-02-23T07:26:21.333Z,45.00
2019-02-23T07:28:50.515Z,44.80
2019-02-23T07:31:19.772Z,44.90
2019-02-23T07:33:48.962Z,45.10
2019-02-23T07:36:18.024Z,45.10
2019-02-23T07:38:47.062Z,45.70
2019-02-23T07:41:16.013Z,46.40
2019-02-23T07:43:45.003Z,47.00
2019-02-23T07:46:14.367Z,46.30
2019-02-23T07:48:43.514Z,45.60
2019-02-23T07:51:14.834Z,45.40
2019-02-23T07:53:44.377Z,46.00
2019-02-23T07:56:13.444Z,47.70
2019-02-23T07:58:42.716Z,46.40
2019-02-23T08:01:11.768Z,46.20
2019-02-23T08:03:41.384Z,46.70
2019-02-23T08:06:10.476Z,45.70
2019-02-23T08:08:39.854Z,44.80
2019-02-23T08:11:09.117Z,44.30
2019-02-23T08:13:40.588Z,44.20
2019-02-23T08:16:08.966Z,44.00
2019-02-23T08:18:37.965Z,43.80
2019-02-23T08:21:06.953Z,43.90
2019-02-23T08:23:36.059Z,43.60
2019-02-23T08:26:05.231Z,43.40
2019-02-23T08:28:34.212Z,43.50
2019-02-23T08:31:03.300Z,43.50
2019-02-23T08:33:32.291Z,43.80
2019-02-23T08:36:01.351Z,44.00
2019-02-23T08:38:30.322Z,44.00
2019-02-23T08:40:59.530Z,44.00
2019-02-23T08:43:28.403Z,44.00
2019-02-23T08:45:57.502Z,46.00
2019-02-23T08:48:26.677Z,45.70
2019-02-23T08:50:55.911Z,44.40
2019-02-23T08:53:25.118Z,44.20
2019-02-23T08:55:54.015Z,42.80
2019-02-23T08:58:23.167Z,42.00
2019-02-23T09:00:52.296Z,41.80
2019-02-23T09:03:21.380Z,41.70
2019-02-23T09:05:50.374Z,41.70
2019-02-23T09:08:20.704Z,41.60
2019-02-23T09:10:49.905Z,41.80
2019-02-23T09:13:18.908Z,42.30
2019-02-23T09:15:48.029Z,42.30
2019-02-23T09:18:17.149Z,41.60
2019-02-23T09:20:46.182Z,41.50
2019-02-23T09:23:15.214Z,41.00
2019-02-23T09:25:44.514Z,40.90
2019-02-23T09:28:13.974Z,40.60
2019-02-23T09:30:43.007Z,40.00
2019-02-23T09:33:12.013Z,39.80
2019-02-23T09:35:41.001Z,39.10
2019-02-23T09:38:10.021Z,38.90
2019-02-23T09:40:39.198Z,39.00
2019-02-23T09:43:08.316Z,38.70
2019-02-23T09:45:37.576Z,38.50
2019-02-23T09:48:06.518Z,38.40
2019-02-23T09:50:35.542Z,38.20
2019-02-23T09:53:11.282Z,38.10
2019-02-23T09:55:35.635Z,37.90
2019-02-23T09:58:04.748Z,38.10
2019-02-23T10:00:33.857Z,37.60
2019-02-23T10:03:02.748Z,38.40
2019-02-23T10:05:31.842Z,37.80
2019-02-23T10:08:00.729Z,38.60
2019-02-23T10:10:29.627Z,39.00
2019-02-23T10:12:58.923Z,39.00
2019-02-23T10:15:27.923Z,39.20
2019-02-23T10:17:56.885Z,39.80
2019-02-23T10:20:26.131Z,39.20
2019-02-23T10:22:55.323Z,39.60
2019-02-23T10:25:26.810Z,40.10
2019-02-23T10:27:55.983Z,41.00
2019-02-23T10:30:25.004Z,40.90
2019-02-23T10:32:54.202Z,38.90
2019-02-23T10:35:23.423Z,40.20
2019-02-23T10:37:52.503Z,39.00
2019-02-23T10:40:21.548Z,38.90
2019-02-23T10:42:50.596Z,38.30
2019-02-23T10:45:19.739Z,38.50
2019-02-23T10:47:50.297Z,37.80
2019-02-23T10:50:19.481Z,38.10
2019-02-23T10:52:48.573Z,37.80
2019-02-23T10:55:17.616Z,36.90
2019-02-23T10:57:46.800Z,37.50
2019-02-23T11:00:20.547Z,37.80
2019-02-23T11:02:49.649Z,37.70
2019-02-23T11:05:18.926Z,37.30
2019-02-23T11:07:48.003Z,37.80
2019-02-23T11:10:17.485Z,37.20
2019-02-23T11:12:46.663Z,37.00
2019-02-23T11:15:17.774Z,37.10
2019-02-23T11:17:47.202Z,37.90
2019-02-23T11:20:16.714Z,38.00
2019-02-23T11:22:46.246Z,39.20
2019-02-23T11:25:15.469Z,41.10
2019-02-23T11:27:44.766Z,37.30
2019-02-23T11:30:13.917Z,35.40
2019-02-23T11:32:42.968Z,34.50
2019-02-23T11:35:12.283Z,34.30
2019-02-23T11:37:41.478Z,33.80
2019-02-23T11:40:10.678Z,35.20
2019-02-23T11:42:39.923Z,34.60
2019-02-23T11:45:09.947Z,34.50
2019-02-23T11:47:39.120Z,34.20
2019-02-23T11:50:09.879Z,33.90
2019-02-23T11:52:39.582Z,33.90
2019-02-23T11:55:08.920Z,33.80
2019-02-23T11:57:37.900Z,33.50
2019-02-23T12:00:08.347Z,33.20
2019-02-23T12:02:39.871Z,34.50
2019-02-23T12:05:09.256Z,35.80
2019-02-23T12:07:38.406Z,35.40
2019-02-23T12:10:09.551Z,34.90
2019-02-23T12:12:38.666Z,35.30
2019-02-23T12:15:10.731Z,35.70
2019-02-23T12:17:40.209Z,36.80
2019-02-23T12:20:10.834Z,35.70
2019-02-23T12:22:40.036Z,35.10
2019-02-23T12:25:09.333Z,35.40
2019-02-23T12:27:38.594Z,35.60
2019-02-23T12:30:07.875Z,35.20
2019-02-23T12:32:36.933Z,34.80
2019-02-23T12:35:07.158Z,35.60
2019-02-23T12:37:36.550Z,36.00
2019-02-23T12:40:06.000Z,35.90
2019-02-23T12:42:35.474Z,35.80
2019-02-23T12:45:05.026Z,34.80
2019-02-23T12:47:34.104Z,34.80
2019-02-23T12:50:04.435Z,34.60
2019-02-23T12:52:36.124Z,33.10
2019-02-23T12:55:15.112Z,33.50
2019-02-23T12:57:44.326Z,33.90
2019-02-23T13:00:13.663Z,33.60
2019-02-23T13:02:42.915Z,33.30
2019-02-23T13:05:15.808Z,33.70
2019-02-23T13:07:45.570Z,33.50
2019-02-23T13:10:14.775Z,32.80
2019-02-23T13:13:14.478Z,32.30
2019-02-23T13:16:11.227Z,32.50
2019-02-23T13:19:12.453Z,31.80
2019-02-23T13:21:49.925Z,32.60
2019-02-23T13:24:43.371Z,32.30
2019-02-23T13:27:36.954Z,32.80
2019-02-23T13:30:41.032Z,32.30
2019-02-23T13:34:00.045Z,32.30
2019-02-23T13:37:01.790Z,32.60
2019-02-23T13:40:02.134Z,32.90
2019-02-23T13:43:04.810Z,33.40
2019-02-23T13:46:11.396Z,33.60
2019-02-23T13:49:19.510Z,33.90
2019-02-23T13:52:47.534Z,34.20
2019-02-23T13:55:44.800Z,33.90
2019-02-23T13:58:29.734Z,34.20
2019-02-23T14:01:21.801Z,34.80
2019-02-23T14:04:41.285Z,34.60
2019-02-23T14:07:32.294Z,34.40
2019-02-23T14:10:35.473Z,34.50
2019-02-23T14:13:28.668Z,34.30
2019-02-23T14:16:24.130Z,34.60
2019-02-23T14:19:46.846Z,34.60
2019-02-23T14:22:38.712Z,34.40
2019-02-23T14:25:51.457Z,34.90
2019-02-23T14:28:44.917Z,34.90
2019-02-23T14:31:54.036Z,34.70
2019-02-23T14:34:38.504Z,34.80
2019-02-23T14:37:22.842Z,35.40
2019-02-23T14:40:26.569Z,35.10
2019-02-23T14:43:18.611Z,35.10
2019-02-23T14:46:20.822Z,36.00
2019-02-23T14:49:21.323Z,36.10
2019-02-23T14:52:31.864Z,36.00
2019-02-23T14:55:44.904Z,35.60
2019-02-23T14:58:44.210Z,35.70
2019-02-23T15:01:36.376Z,35.20
2019-02-23T15:04:48.390Z,35.50
2019-02-23T15:07:53.132Z,35.50
2019-02-23T15:10:48.204Z,35.20
2019-02-23T15:13:57.171Z,35.10
2019-02-23T15:16:50.844Z,35.00
2019-02-23T15:19:59.634Z,35.30
2019-02-23T15:23:08.237Z,35.80
2019-02-23T15:26:01.259Z,35.80
2019-02-23T15:29:01.682Z,35.80
2019-02-23T15:32:03.814Z,35.70
2019-02-23T15:35:09.035Z,35.70
2019-02-23T15:38:15.513Z,35.50
2019-02-23T15:41:13.183Z,35.50
2019-02-23T15:43:54.523Z,35.80
2019-02-23T15:46:33.994Z,35.40
2019-02-23T15:49:32.526Z,35.50
2019-02-23T15:52:03.237Z,35.50
2019-02-23T15:54:32.703Z,35.40
2019-02-23T15:57:02.539Z,35.70
2019-02-23T15:59:31.882Z,35.90
2019-02-23T16:02:01.973Z,36.30
2019-02-23T16:04:31.838Z,36.50
2019-02-23T16:07:03.092Z,36.50
2019-02-23T16:09:33.570Z,36.70
2019-02-23T16:12:02.816Z,36.80
2019-02-23T16:14:31.856Z,36.90
2019-02-23T16:17:01.080Z,36.60
2019-02-23T16:19:30.720Z,36.80
2019-02-23T16:21:59.833Z,37.00
2019-02-23T16:24:28.934Z,36.60
2019-02-23T16:26:58.211Z,36.20
2019-02-23T16:29:27.304Z,36.20
2019-02-23T16:31:56.948Z,36.20
2019-02-23T16:34:26.023Z,36.20
2019-02-23T16:36:55.047Z,36.20
2019-02-23T16:39:24.391Z,36.30
2019-02-23T16:41:53.863Z,36.20
2019-02-23T16:44:23.163Z,36.00
2019-02-23T16:46:52.295Z,35.70
2019-02-23T16:49:21.243Z,35.80
2019-02-23T16:51:50.178Z,35.80
2019-02-23T16:54:19.114Z,35.70
2019-02-23T16:56:48.099Z,35.70
2019-02-23T16:59:17.142Z,35.80
2019-02-23T17:01:46.198Z,36.10
2019-02-23T17:04:15.543Z,36.30
2019-02-23T17:06:44.669Z,36.80
2019-02-23T17:09:14.107Z,37.10
2019-02-23T17:11:46.170Z,37.30
2019-02-23T17:14:15.556Z,37.50
2019-02-23T17:16:44.652Z,37.70
2019-02-23T17:19:13.944Z,37.80
2019-02-23T17:21:43.276Z,38.00
2019-02-23T17:24:12.261Z,38.10
2019-02-23T17:26:41.400Z,38.30
2019-02-23T17:29:10.783Z,38.40
2019-02-23T17:31:39.954Z,38.60
2019-02-23T17:34:11.782Z,38.70
2019-02-23T17:36:40.858Z,38.90
2019-02-23T17:39:10.571Z,38.70
2019-02-23T17:41:39.981Z,39.00
2019-02-23T17:44:09.372Z,39.30
2019-02-23T17:46:38.792Z,39.20
2019-02-23T17:49:08.359Z,39.40
2019-02-23T17:51:37.476Z,39.50
2019-02-23T17:54:06.518Z,39.50
2019-02-23T17:56:35.698Z,39.60
2019-02-23T17:59:04.877Z,39.80
2019-02-23T18:01:34.017Z,40.40
2019-02-23T18:04:03.149Z,39.80
2019-02-23T18:06:32.655Z,39.80
2019-02-23T18:09:06.020Z,39.80
2019-02-23T18:11:35.659Z,39.70
2019-02-23T18:14:04.982Z,39.70
2019-02-23T18:16:33.921Z,39.70
2019-02-23T18:19:03.185Z,39.80
2019-02-23T18:21:32.107Z,40.00
2019-02-23T18:24:01.298Z,40.20
2019-02-23T18:26:30.441Z,40.00
2019-02-23T18:28:59.454Z,40.00
2019-02-23T18:31:28.547Z,40.10
2019-02-23T18:33:57.809Z,40.20
2019-02-23T18:36:27.440Z,40.10
2019-02-23T18:38:56.822Z,40.20
2019-02-23T18:41:25.861Z,40.30
2019-02-23T18:43:54.847Z,40.20
2019-02-23T18:46:23.960Z,40.30
2019-02-23T18:48:53.445Z,40.30
2019-02-23T18:51:22.504Z,40.40
2019-02-23T18:53:51.677Z,40.50
2019-02-23T18:56:29.696Z,40.50
2019-02-23T18:58:58.437Z,40.50
2019-02-23T19:01:30.623Z,40.70
2019-02-23T19:03:59.825Z,40.70
2019-02-23T19:06:29.217Z,40.70
2019-02-23T19:08:58.486Z,40.70
2019-02-23T19:11:27.965Z,40.80
2019-02-23T19:13:57.397Z,40.70
2019-02-23T19:16:27.292Z,40.80
2019-02-23T19:18:56.493Z,40.80
2019-02-23T19:21:25.735Z,40.80
2019-02-23T19:23:55.759Z,41.10
2019-02-23T19:26:24.976Z,41.10
2019-02-23T19:28:56.001Z,41.10
2019-02-23T19:31:25.465Z,41.10
2019-02-23T19:33:54.912Z,40.90
2019-02-23T19:36:30.385Z,41.00
2019-02-23T19:38:59.673Z,40.90
2019-02-23T19:41:29.009Z,40.80
2019-02-23T19:43:58.246Z,40.90
2019-02-23T19:46:27.513Z,41.10
2019-02-23T19:48:56.601Z,41.00
2019-02-23T19:51:25.960Z,41.10
2019-02-23T19:53:55.641Z,41.10
2019-02-23T19:56:24.759Z,41.10
2019-02-23T19:58:56.860Z,40.90
2019-02-23T20:01:26.007Z,40.70
2019-02-23T20:03:55.621Z,40.50
2019-02-23T20:06:25.151Z,40.50
2019-02-23T20:08:59.036Z,40.30
2019-02-23T20:11:28.361Z,40.10
2019-02-23T20:13:57.496Z,40.00
2019-02-23T20:16:30.259Z,40.00
2019-02-23T20:19:00.051Z,39.80
2019-02-23T20:21:31.520Z,39.60
2019-02-23T20:24:00.905Z,39.80
2019-02-23T20:26:32.283Z,39.70
2019-02-23T20:29:01.513Z,39.80
2019-02-23T20:31:31.969Z,40.00
2019-02-23T20:34:01.896Z,40.00
2019-02-23T20:36:35.164Z,40.10
2019-02-23T20:39:05.360Z,40.10
2019-02-23T20:41:34.918Z,40.20
2019-02-23T20:44:05.515Z,40.60
2019-02-23T20:46:35.330Z,40.40
2019-02-23T20:49:04.771Z,40.50
2019-02-23T20:51:37.074Z,40.60
2019-02-23T20:54:06.105Z,40.50
2019-02-23T20:56:35.203Z,40.60
2019-02-23T20:59:05.799Z,40.60
2019-02-23T21:01:34.960Z,40.70
2019-02-23T21:04:04.368Z,40.90
2019-02-23T21:06:34.125Z,40.80
2019-02-23T21:09:04.233Z,40.80
2019-02-23T21:11:35.563Z,40.80
2019-02-23T21:14:05.309Z,41.50
2019-02-23T21:16:34.656Z,40.90
2019-02-23T21:19:05.669Z,41.00
2019-02-23T21:21:34.896Z,40.90
2019-02-23T21:24:04.138Z,40.90
2019-02-23T21:26:33.322Z,40.90
2019-02-23T21:29:02.892Z,40.80
2019-02-23T21:31:32.153Z,40.80
2019-02-23T21:34:01.320Z,40.90
2019-02-23T21:36:30.822Z,40.80
2019-02-23T21:39:00.274Z,40.80
2019-02-23T21:41:29.221Z,40.70
2019-02-23T21:43:58.399Z,40.80
2019-02-23T21:46:27.512Z,40.70
2019-02-23T21:48:56.629Z,40.70
2019-02-23T21:51:25.638Z,40.80
2019-02-23T21:53:54.899Z,40.90
2019-02-23T21:56:23.997Z,40.80
2019-02-23T21:58:53.528Z,40.80
2019-02-23T22:01:29.517Z,40.80
2019-02-23T22:03:58.669Z,40.80
2019-02-23T22:06:27.645Z,40.70
2019-02-23T22:08:56.912Z,40.90
2019-02-23T22:11:26.126Z,40.70
2019-02-23T22:13:55.352Z,40.80
2019-02-23T22:16:24.562Z,40.80
2019-02-23T22:18:53.623Z,40.70
2019-02-23T22:21:22.604Z,40.80
2019-02-23T22:23:53.578Z,40.80
2019-02-23T22:26:22.438Z,40.90
2019-02-23T22:28:51.868Z,40.90
2019-02-23T22:31:21.087Z,40.90
2019-02-23T22:33:50.234Z,40.80
2019-02-23T22:36:19.307Z,40.60
2019-02-23T22:38:54.788Z,40.50
2019-02-23T22:41:23.823Z,40.30
2019-02-23T22:43:52.844Z,40.40
2019-02-23T22:46:22.065Z,40.30
2019-02-23T22:48:51.385Z,40.40
2019-02-23T22:51:20.678Z,40.40
2019-02-23T22:53:49.805Z,40.40
2019-02-23T22:56:18.967Z,40.50
2019-02-23T22:58:47.899Z,40.30
2019-02-23T23:01:17.658Z,40.40
2019-02-23T23:03:46.700Z,40.40
2019-02-23T23:06:15.617Z,40.60
2019-02-23T23:08:45.116Z,40.60
2019-02-23T23:11:14.272Z,40.50
2019-02-23T23:13:43.253Z,40.20
2019-02-23T23:16:12.293Z,40.40
2019-02-23T23:18:41.399Z,40.50
2019-02-23T23:21:10.960Z,40.60
2019-02-23T23:23:40.595Z,40.80
2019-02-23T23:26:11.518Z,40.90
2019-02-23T23:28:40.382Z,41.20
2019-02-23T23:31:09.471Z,41.40
2019-02-23T23:33:38.588Z,41.50
2019-02-23T23:36:07.727Z,41.60
2019-02-23T23:38:39.157Z,41.90
2019-02-23T23:41:08.788Z,41.90
2019-02-23T23:43:37.814Z,41.90
2019-02-23T23:46:06.844Z,42.10
2019-02-23T23:48:35.976Z,42.30
2019-02-23T23:51:05.082Z,42.30
2019-02-23T23:53:34.053Z,42.60
2019-02-23T23:56:03.116Z,42.70
2019-02-23T23:58:33.402Z,42.80
